Time;durP1;ratioP1;P1;durP2;ratioP2;P2;SDS_P1;SDS_P2;PMS_P1;PMS_P2;Temp;Humidity;BMP_temperature;BMP_pressure;BME280_temperature;BME280_humidity;BME280_pressure;Samples;Min_cycle;Max_cycle;Signal;HPM_P1;HPM_P2
2023/05/07 00:00:07;;;;;;;10.07;6.65;;;14.30;99.90;;;;;;6244487;22;20020;-71
2023/05/07 00:02:32;;;;;;;9.68;6.32;;;14.30;99.90;;;;;;6271896;22;20015;-71
2023/05/07 00:04:58;;;;;;;11.73;6.82;;;14.20;99.90;;;;;;6271438;22;20019;-70
2023/05/07 00:07:24;;;;;;;8.68;7.15;;;14.20;99.90;;;;;;6271558;22;20051;-70
2023/05/07 00:09:50;;;;;;;10.48;6.82;;;14.20;99.90;;;;;;6270392;22;20016;-70
2023/05/07 00:12:15;;;;;;;13.95;8.00;;;14.20;99.90;;;;;;6272023;22;20026;-73
2023/05/07 00:14:41;;;;;;;14.15;8.57;;;14.10;99.90;;;;;;6243879;22;20030;-73
2023/05/07 00:17:07;;;;;;;11.50;7.75;;;14.10;99.90;;;;;;6271600;22;20098;-73
2023/05/07 00:19:33;;;;;;;13.15;8.00;;;14.10;99.90;;;;;;6272233;22;20448;-72
2023/05/07 00:21:58;;;;;;;12.70;8.52;;;14.10;99.90;;;;;;6270171;22;20015;-73
2023/05/07 00:24:24;;;;;;;15.88;9.00;;;14.10;99.90;;;;;;6271700;22;20011;-72
2023/05/07 00:26:50;;;;;;;13.25;8.90;;;14.10;99.90;;;;;;6271899;22;20019;-72
2023/05/07 00:29:16;;;;;;;12.25;8.63;;;14.10;99.90;;;;;;6243792;22;20023;-72
2023/05/07 00:31:41;;;;;;;13.40;9.98;;;14.00;99.90;;;;;;6271670;22;20455;-73
2023/05/07 00:34:07;;;;;;;16.17;9.27;;;14.00;99.90;;;;;;6271733;22;20451;-72
2023/05/07 00:36:33;;;;;;;16.65;9.52;;;14.00;99.90;;;;;;6243965;22;20030;-73
2023/05/07 00:39:03;;;;;;;14.05;9.75;;;14.00;99.90;;;;;;6244055;22;20054;-73
2023/05/07 00:41:30;;;;;;;12.95;9.45;;;13.90;99.90;;;;;;6270990;22;20043;-73
2023/05/07 00:43:56;;;;;;;15.52;10.23;;;13.90;99.90;;;;;;6271938;22;20108;-72
2023/05/07 00:46:23;;;;;;;14.75;10.43;;;14.00;99.90;;;;;;6269530;22;20015;-72
2023/05/07 00:48:50;;;;;;;16.55;10.07;;;13.90;99.90;;;;;;6271398;22;20091;-73
2023/05/07 00:51:17;;;;;;;16.55;10.68;;;13.90;99.90;;;;;;6244250;22;20023;-71
2023/05/07 00:53:43;;;;;;;19.77;12.50;;;13.80;99.90;;;;;;6271383;22;20047;-70
2023/05/07 00:56:09;;;;;;;17.92;11.40;;;13.80;99.90;;;;;;6270661;22;20363;-70
2023/05/07 00:58:35;;;;;;;17.80;12.27;;;13.80;99.90;;;;;;6271292;22;20113;-70
2023/05/07 01:01:02;;;;;;;16.90;10.93;;;13.70;99.90;;;;;;6270831;22;20019;-70
2023/05/07 01:03:27;;;;;;;19.20;12.73;;;13.60;99.90;;;;;;6270965;22;20036;-71
2023/05/07 01:05:57;;;;;;;18.30;11.65;;;13.60;99.90;;;;;;6243812;22;20024;-70
2023/05/07 01:08:24;;;;;;;19.35;12.20;;;13.50;99.90;;;;;;6271642;22;20050;-70
2023/05/07 01:10:51;;;;;;;18.67;11.85;;;13.40;99.90;;;;;;6270264;22;20088;-70
2023/05/07 01:13:18;;;;;;;18.48;12.13;;;13.40;99.90;;;;;;6271632;22;20015;-70
2023/05/07 01:15:44;;;;;;;17.42;12.07;;;13.40;99.90;;;;;;6270530;22;20073;-70
2023/05/07 01:18:10;;;;;;;17.52;12.27;;;13.40;99.90;;;;;;6270344;22;20090;-70
2023/05/07 01:20:36;;;;;;;21.23;13.77;;;13.40;99.90;;;;;;6271110;22;20027;-70
2023/05/07 01:23:03;;;;;;;19.70;13.05;;;13.40;99.90;;;;;;6243613;22;20350;-70
2023/05/07 01:25:30;;;;;;;16.75;11.82;;;13.30;99.90;;;;;;6271272;22;20047;-70
2023/05/07 01:27:56;;;;;;;21.35;12.57;;;13.20;99.90;;;;;;6270777;22;20760;-70
2023/05/07 01:30:22;;;;;;;20.10;12.23;;;13.30;99.90;;;;;;6270958;22;20846;-68
2023/05/07 01:32:56;;;;;;;20.88;12.15;;;13.20;99.90;;;;;;6271032;22;20517;-68
2023/05/07 01:35:27;;;;;;;19.58;12.52;;;13.10;99.90;;;;;;6218511;22;20487;-68
2023/05/07 01:37:54;;;;;;;21.10;13.18;;;13.10;99.90;;;;;;6271491;22;20465;-68
2023/05/07 01:40:20;;;;;;;19.00;12.40;;;13.00;99.90;;;;;;6271060;22;20027;-68
2023/05/07 01:42:46;;;;;;;17.38;12.50;;;13.00;99.90;;;;;;6271005;22;20058;-68
2023/05/07 01:45:12;;;;;;;19.65;12.88;;;13.00;99.90;;;;;;6271313;22;20047;-68
2023/05/07 01:47:38;;;;;;;21.58;12.38;;;12.90;99.90;;;;;;6271124;22;20030;-69
2023/05/07 01:50:07;;;;;;;21.15;13.63;;;13.00;99.90;;;;;;6271422;22;20023;-68
2023/05/07 01:52:34;;;;;;;24.80;14.05;;;13.00;99.90;;;;;;6270764;22;20019;-68
2023/05/07 01:55:00;;;;;;;21.73;13.45;;;12.90;99.90;;;;;;6271185;22;20056;-69
2023/05/07 01:57:26;;;;;;;20.85;13.75;;;12.90;99.90;;;;;;6270992;22;20117;-68
2023/05/07 01:59:51;;;;;;;20.00;13.80;;;12.90;99.90;;;;;;6271204;22;20099;-68
2023/05/07 02:02:17;;;;;;;23.98;13.52;;;12.90;99.90;;;;;;6272865;22;20023;-69
2023/05/07 02:04:43;;;;;;;21.35;13.80;;;12.80;99.90;;;;;;6273037;22;20034;-68
2023/05/07 02:07:08;;;;;;;21.77;14.50;;;12.80;99.90;;;;;;6272799;22;20103;-69
2023/05/07 02:09:34;;;;;;;22.90;14.43;;;12.80;99.90;;;;;;6273139;22;20068;-68
2023/05/07 02:12:00;;;;;;;25.52;15.93;;;12.70;99.90;;;;;;6273157;22;20020;-68
2023/05/07 02:14:26;;;;;;;24.65;14.68;;;12.60;99.90;;;;;;6245595;22;20069;-69
2023/05/07 02:16:51;;;;;;;23.00;14.50;;;12.60;99.90;;;;;;6246029;22;20019;-68
2023/05/07 02:19:18;;;;;;;24.10;15.32;;;12.50;99.90;;;;;;6245653;22;20058;-68
2023/05/07 02:21:43;;;;;;;26.05;16.33;;;12.50;99.90;;;;;;6245620;22;20020;-68
2023/05/07 02:24:09;;;;;;;24.23;16.00;;;12.40;99.90;;;;;;6245550;22;20022;-69
2023/05/07 02:26:35;;;;;;;27.27;15.45;;;12.40;99.90;;;;;;6245455;22;20076;-71
2023/05/07 02:29:00;;;;;;;24.10;15.10;;;12.40;99.90;;;;;;6271211;22;20072;-76
2023/05/07 02:31:26;;;;;;;28.55;16.35;;;12.50;99.90;;;;;;6271524;22;20113;-76
2023/05/07 02:33:52;;;;;;;29.27;16.33;;;12.40;99.90;;;;;;6271527;22;20436;-76
2023/05/07 02:36:17;;;;;;;28.63;16.60;;;12.40;99.90;;;;;;6246430;22;20051;-76
2023/05/07 02:38:43;;;;;;;28.13;16.60;;;12.40;99.90;;;;;;6246971;22;20026;-76
2023/05/07 02:41:10;;;;;;;27.15;16.30;;;12.30;99.90;;;;;;6245867;22;20074;-76
2023/05/07 02:43:36;;;;;;;28.17;17.02;;;12.30;99.90;;;;;;6271542;22;20043;-77
2023/05/07 02:46:07;;;;;;;27.20;16.67;;;12.30;99.90;;;;;;6246023;22;20027;-76
2023/05/07 02:48:33;;;;;;;30.75;17.75;;;12.30;99.90;;;;;;6246056;22;20024;-75
2023/05/07 02:50:59;;;;;;;34.55;17.98;;;12.30;99.90;;;;;;6271026;22;20020;-75
2023/05/07 02:53:26;;;;;;;28.88;17.77;;;12.40;99.90;;;;;;6245668;22;20016;-76
2023/05/07 02:56:01;;;;;;;30.58;18.27;;;12.30;99.90;;;;;;6270345;22;20019;-76
2023/05/07 02:58:27;;;;;;;29.67;18.00;;;12.30;99.90;;;;;;6245964;22;20055;-77
2023/05/07 03:00:54;;;;;;;28.58;16.63;;;12.30;99.90;;;;;;6245922;22;20020;-76
2023/05/07 03:03:20;;;;;;;31.67;18.02;;;12.30;99.90;;;;;;6245592;22;20020;-76
2023/05/07 03:05:46;;;;;;;35.03;18.63;;;12.10;99.90;;;;;;6270791;22;20085;-77
2023/05/07 03:08:13;;;;;;;32.42;18.83;;;12.20;99.90;;;;;;6270680;22;20130;-76
2023/05/07 03:10:38;;;;;;;34.30;19.05;;;12.20;99.90;;;;;;6244400;22;20031;-76
2023/05/07 03:13:04;;;;;;;30.90;18.48;;;12.10;99.90;;;;;;6245787;22;20352;-76
2023/05/07 03:15:30;;;;;;;33.63;18.42;;;12.10;99.90;;;;;;6272366;22;20023;-76
2023/05/07 03:17:56;;;;;;;31.80;18.02;;;12.10;99.90;;;;;;6273134;22;20015;-77
2023/05/07 03:20:22;;;;;;;32.70;19.15;;;12.10;99.90;;;;;;6246066;22;20028;-77
2023/05/07 03:22:47;;;;;;;34.05;20.48;;;12.10;99.90;;;;;;6273094;22;20026;-77
2023/05/07 03:25:14;;;;;;;37.53;21.15;;;12.10;99.90;;;;;;6271866;22;20378;-73
2023/05/07 03:27:41;;;;;;;39.00;21.60;;;12.10;99.90;;;;;;6271954;22;20019;-73
2023/05/07 03:30:08;;;;;;;34.03;20.35;;;12.10;99.90;;;;;;6271426;22;20027;-73
2023/05/07 03:32:35;;;;;;;39.45;21.58;;;12.10;99.90;;;;;;6244853;22;20043;-73
2023/05/07 03:35:01;;;;;;;34.30;20.75;;;12.00;99.90;;;;;;6271918;22;20014;-73
2023/05/07 03:37:26;;;;;;;32.00;19.15;;;12.00;99.90;;;;;;6272002;22;20339;-72
2023/05/07 03:39:52;;;;;;;37.75;20.88;;;12.00;99.90;;;;;;6271998;22;20027;-73
2023/05/07 03:42:18;;;;;;;36.50;19.08;;;12.00;99.90;;;;;;6272144;22;20019;-73
2023/05/07 03:44:43;;;;;;;35.50;20.48;;;11.90;99.90;;;;;;6272070;22;20415;-71
2023/05/07 03:47:10;;;;;;;35.67;20.55;;;12.00;99.90;;;;;;6271801;22;20020;-71
2023/05/07 03:49:36;;;;;;;34.50;21.08;;;11.90;99.90;;;;;;6269687;22;20019;-71
2023/05/07 03:52:02;;;;;;;42.47;21.60;;;11.90;99.90;;;;;;6271078;22;20387;-71
2023/05/07 03:54:28;;;;;;;35.67;21.55;;;12.00;99.90;;;;;;6244041;22;20030;-71
2023/05/07 03:56:53;;;;;;;34.97;19.88;;;11.90;99.90;;;;;;6269981;22;20101;-71
2023/05/07 03:59:19;;;;;;;34.55;19.45;;;12.00;99.90;;;;;;6271896;22;20020;-71
2023/05/07 04:01:45;;;;;;;31.60;20.17;;;12.00;99.90;;;;;;6244193;22;20031;-71
2023/05/07 04:04:10;;;;;;;33.38;19.88;;;12.00;99.90;;;;;;6271463;22;20054;-71
2023/05/07 04:06:37;;;;;;;33.28;20.10;;;11.90;99.90;;;;;;6269632;22;20037;-71
2023/05/07 04:09:03;;;;;;;34.58;19.30;;;11.90;99.90;;;;;;6271338;22;20086;-71
2023/05/07 04:11:28;;;;;;;37.05;20.73;;;11.90;99.90;;;;;;6271275;22;20015;-71
2023/05/07 04:13:54;;;;;;;35.10;20.88;;;11.90;99.90;;;;;;6269481;22;20034;-71
2023/05/07 04:16:20;;;;;;;34.05;20.15;;;11.90;99.90;;;;;;6271318;22;20023;-71
2023/05/07 04:18:46;;;;;;;31.77;18.90;;;12.00;99.90;;;;;;6271841;22;20019;-71
2023/05/07 04:21:21;;;;;;;34.85;20.05;;;11.90;99.90;;;;;;6270461;22;20035;-70
2023/05/07 04:23:47;;;;;;;32.85;20.27;;;12.00;99.90;;;;;;6244103;22;20024;-76
2023/05/07 04:26:14;;;;;;;30.13;19.48;;;11.90;99.90;;;;;;6269727;22;20023;-76
2023/05/07 04:28:40;;;;;;;27.92;18.50;;;11.80;99.90;;;;;;6244117;22;20051;-76
2023/05/07 04:31:06;;;;;;;33.83;18.73;;;11.90;99.90;;;;;;6270557;22;20023;-76
2023/05/07 04:33:33;;;;;;;27.67;17.17;;;11.90;99.90;;;;;;6244466;22;20016;-76
2023/05/07 04:36:02;;;;;;;33.22;17.70;;;11.80;99.90;;;;;;6244519;22;20023;-76
2023/05/07 04:38:32;;;;;;;31.92;18.00;;;11.90;99.90;;;;;;6244425;22;20086;-77
2023/05/07 04:41:03;;;;;;;27.55;19.35;;;11.80;99.90;;;;;;6271579;22;20035;-75
2023/05/07 04:43:28;;;;;;;33.80;17.48;;;11.90;99.90;;;;;;6271080;22;20062;-75
2023/05/07 04:45:54;;;;;;;28.65;18.05;;;11.90;99.90;;;;;;6271697;22;20525;-75
2023/05/07 04:48:20;;;;;;;28.42;17.50;;;11.90;99.90;;;;;;6271674;22;20034;-74
2023/05/07 04:50:50;;;;;;;30.48;16.45;;;12.00;99.90;;;;;;6269017;22;20024;-75
2023/05/07 04:53:16;;;;;;;31.88;16.77;;;11.90;99.90;;;;;;6272149;22;20011;-75
2023/05/07 04:55:42;;;;;;;27.45;18.17;;;11.90;99.90;;;;;;6244377;22;20103;-75
2023/05/07 04:58:08;;;;;;;26.92;16.38;;;11.90;99.90;;;;;;6271621;22;20062;-75
2023/05/07 05:00:34;;;;;;;27.10;17.00;;;11.90;99.90;;;;;;6270051;22;20016;-75
2023/05/07 05:03:00;;;;;;;29.98;16.92;;;11.90;99.90;;;;;;6244094;22;20042;-75
2023/05/07 05:05:25;;;;;;;30.33;18.60;;;12.00;99.90;;;;;;6272093;22;20023;-75
2023/05/07 05:07:51;;;;;;;29.80;17.15;;;11.90;99.90;;;;;;6242827;22;20023;-75
2023/05/07 05:10:17;;;;;;;28.65;18.48;;;11.90;99.90;;;;;;6244007;22;20031;-75
2023/05/07 05:12:44;;;;;;;26.00;16.52;;;11.90;99.90;;;;;;6269120;22;20458;-75
2023/05/07 05:15:11;;;;;;;25.10;16.27;;;11.90;99.90;;;;;;6242744;22;20021;-74
2023/05/07 05:17:37;;;;;;;28.40;17.75;;;12.00;99.90;;;;;;6269599;22;20525;-69
2023/05/07 05:20:03;;;;;;;29.55;16.58;;;12.00;99.90;;;;;;6270909;22;20444;-75
2023/05/07 05:22:31;;;;;;;27.85;17.35;;;11.90;99.90;;;;;;6244327;22;20187;-74
2023/05/07 05:24:57;;;;;;;27.92;16.90;;;11.90;99.90;;;;;;6244559;22;20079;-75
2023/05/07 05:27:23;;;;;;;24.35;16.00;;;12.00;99.90;;;;;;6244423;22;20054;-76
2023/05/07 05:29:48;;;;;;;26.15;15.57;;;11.90;99.90;;;;;;6244733;22;20051;-76
2023/05/07 05:32:14;;;;;;;26.60;16.38;;;12.00;99.90;;;;;;6244934;22;20026;-76
2023/05/07 05:34:40;;;;;;;27.25;16.58;;;11.90;99.90;;;;;;6246800;22;20024;-77
2023/05/07 05:37:05;;;;;;;26.85;15.73;;;11.90;99.90;;;;;;6276977;22;20023;-76
2023/05/07 05:39:31;;;;;;;30.40;18.15;;;11.90;99.90;;;;;;6276530;22;20019;-69
2023/05/07 05:41:57;;;;;;;27.70;17.00;;;11.90;99.90;;;;;;6274185;22;20391;-69
2023/05/07 05:44:22;;;;;;;29.02;16.88;;;12.00;99.90;;;;;;6273924;22;20042;-69
2023/05/07 05:46:49;;;;;;;28.83;17.00;;;12.00;99.90;;;;;;6273955;22;20134;-69
2023/05/07 05:49:15;;;;;;;29.00;16.77;;;12.10;99.90;;;;;;6247532;22;20095;-69
2023/05/07 05:51:41;;;;;;;29.77;17.58;;;12.00;99.90;;;;;;6274274;22;20032;-68
2023/05/07 05:54:07;;;;;;;30.48;16.65;;;12.00;99.90;;;;;;6273210;22;20113;-69
2023/05/07 05:56:33;;;;;;;25.73;16.92;;;12.00;99.90;;;;;;6273265;22;20024;-76
2023/05/07 05:58:59;;;;;;;24.40;16.83;;;12.00;99.90;;;;;;6273061;22;20023;-71
2023/05/07 06:01:25;;;;;;;34.22;18.85;;;12.10;99.90;;;;;;6272444;22;20026;-71
2023/05/07 06:03:51;;;;;;;29.73;17.52;;;12.10;99.90;;;;;;6272181;22;20059;-70
2023/05/07 06:06:16;;;;;;;30.17;18.50;;;12.10;99.90;;;;;;6272215;22;20788;-71
2023/05/07 06:08:42;;;;;;;31.00;18.27;;;12.10;99.90;;;;;;6272721;22;20019;-71
2023/05/07 06:11:08;;;;;;;29.75;17.48;;;12.20;99.90;;;;;;6272949;22;20034;-71
2023/05/07 06:13:33;;;;;;;31.50;17.77;;;12.20;99.90;;;;;;6272634;22;20016;-71
2023/05/07 06:15:59;;;;;;;31.05;18.38;;;12.20;99.90;;;;;;6271130;22;20027;-71
2023/05/07 06:18:25;;;;;;;27.50;16.48;;;12.20;99.90;;;;;;6272839;22;20050;-70
2023/05/07 06:20:52;;;;;;;31.45;18.02;;;12.20;99.90;;;;;;6272767;22;20023;-71
2023/05/07 06:23:17;;;;;;;29.17;18.48;;;12.20;99.90;;;;;;6274144;22;20058;-71
2023/05/07 06:25:50;;;;;;;29.42;17.98;;;12.20;99.90;;;;;;6275521;22;20015;-71
2023/05/07 06:28:15;;;;;;;28.63;17.20;;;12.20;99.90;;;;;;6275743;22;20079;-71
2023/05/07 06:30:41;;;;;;;36.20;19.75;;;12.30;99.90;;;;;;6275999;22;20493;-71
2023/05/07 06:33:07;;;;;;;29.30;17.85;;;12.30;99.90;;;;;;6273465;22;20027;-71
2023/05/07 06:35:33;;;;;;;32.60;18.73;;;12.30;99.90;;;;;;6275812;22;20047;-70
2023/05/07 06:37:59;;;;;;;29.98;18.00;;;12.20;99.90;;;;;;6275025;22;20443;-70
2023/05/07 06:40:25;;;;;;;28.83;18.23;;;12.20;99.90;;;;;;6275851;22;20019;-71
2023/05/07 06:42:51;;;;;;;31.77;18.42;;;12.30;99.90;;;;;;6276481;22;20534;-72
2023/05/07 06:45:16;;;;;;;27.02;16.63;;;12.20;99.90;;;;;;6272000;22;20023;-66
2023/05/07 06:47:42;;;;;;;35.03;19.40;;;12.20;99.90;;;;;;6271026;22;20019;-66
2023/05/07 06:50:09;;;;;;;34.53;19.33;;;12.30;99.90;;;;;;6271325;22;20058;-66
2023/05/07 06:52:35;;;;;;;32.35;20.00;;;12.30;99.90;;;;;;6271993;22;20014;-78
2023/05/07 06:55:01;;;;;;;30.20;19.13;;;12.40;99.90;;;;;;6277523;22;20023;-65
2023/05/07 06:57:27;;;;;;;35.78;19.88;;;12.40;99.90;;;;;;6244501;22;20039;-67
2023/05/07 06:59:52;;;;;;;33.28;18.73;;;12.40;99.90;;;;;;6272294;22;20066;-67
2023/05/07 07:02:18;;;;;;;32.30;18.38;;;12.40;99.90;;;;;;6244385;22;20408;-66
2023/05/07 07:04:44;;;;;;;31.05;19.00;;;12.40;99.90;;;;;;6244719;22;20023;-67
2023/05/07 07:07:10;;;;;;;33.75;20.08;;;12.50;99.90;;;;;;6271969;22;20390;-66
2023/05/07 07:09:36;;;;;;;31.80;19.42;;;12.40;99.90;;;;;;6272614;22;20023;-66
2023/05/07 07:12:02;;;;;;;39.05;21.23;;;12.40;99.90;;;;;;6272589;22;20019;-73
2023/05/07 07:14:27;;;;;;;34.10;18.83;;;12.50;99.90;;;;;;6245275;22;20063;-75
2023/05/07 07:16:53;;;;;;;35.42;19.58;;;12.50;99.90;;;;;;6245153;22;20118;-75
2023/05/07 07:19:20;;;;;;;33.63;19.48;;;12.60;99.90;;;;;;6272244;22;20016;-75
2023/05/07 07:21:46;;;;;;;37.45;21.55;;;12.60;99.90;;;;;;6270442;22;20055;-73
2023/05/07 07:24:12;;;;;;;33.15;21.13;;;12.60;99.90;;;;;;6271879;22;20351;-75
2023/05/07 07:26:39;;;;;;;35.90;20.40;;;12.60;99.90;;;;;;6244802;22;20023;-76
2023/05/07 07:29:06;;;;;;;36.50;20.55;;;12.70;99.90;;;;;;6270273;22;20023;-75
2023/05/07 07:31:32;;;;;;;35.08;20.42;;;12.80;99.90;;;;;;6245386;22;20066;-83
2023/05/07 07:33:58;;;;;;;32.17;18.58;;;12.70;99.90;;;;;;6272814;22;20016;-79
2023/05/07 07:36:23;;;;;;;37.88;20.42;;;12.70;99.90;;;;;;6272324;22;20597;-76
2023/05/07 07:38:49;;;;;;;31.48;18.40;;;12.80;99.90;;;;;;6272362;22;20077;-73
2023/05/07 07:41:15;;;;;;;38.20;20.20;;;12.90;99.90;;;;;;6272709;22;20027;-75
2023/05/07 07:43:40;;;;;;;33.35;19.02;;;12.90;99.90;;;;;;6245130;22;20026;-76
2023/05/07 07:46:06;;;;;;;33.88;19.90;;;12.90;99.90;;;;;;6244913;22;20099;-77
2023/05/07 07:48:32;;;;;;;36.40;20.10;;;13.00;99.90;;;;;;6272601;22;20024;-73
2023/05/07 07:50:57;;;;;;;36.17;20.90;;;13.00;99.90;;;;;;6271912;22;20119;-73
2023/05/07 07:53:23;;;;;;;35.60;21.25;;;13.00;99.90;;;;;;6271802;22;20347;-66
2023/05/07 07:55:49;;;;;;;37.40;21.67;;;13.10;99.90;;;;;;6271566;22;20019;-65
2023/05/07 07:58:14;;;;;;;37.28;20.42;;;13.10;99.90;;;;;;6271667;22;20069;-65
2023/05/07 08:00:40;;;;;;;42.10;21.95;;;13.20;99.90;;;;;;6271665;22;20015;-66
2023/05/07 08:03:08;;;;;;;35.20;20.08;;;13.10;99.90;;;;;;6272066;22;20055;-66
2023/05/07 08:05:34;;;;;;;39.58;20.55;;;13.10;99.90;;;;;;6244393;22;20026;-65
2023/05/07 08:08:00;;;;;;;37.60;19.83;;;13.20;99.90;;;;;;6271581;22;20027;-66
2023/05/07 08:10:25;;;;;;;40.08;20.10;;;13.30;99.90;;;;;;6271405;22;20051;-67
2023/05/07 08:12:51;;;;;;;40.58;20.02;;;13.50;99.90;;;;;;6269902;22;20023;-67
2023/05/07 08:15:17;;;;;;;37.17;19.88;;;13.50;99.90;;;;;;6271695;22;20019;-67
2023/05/07 08:17:43;;;;;;;32.30;19.55;;;13.60;99.90;;;;;;6271781;22;20078;-67
2023/05/07 08:20:09;;;;;;;34.53;19.48;;;13.60;99.90;;;;;;6271394;22;20054;-67
2023/05/07 08:22:36;;;;;;;34.28;19.98;;;13.80;99.90;;;;;;6271947;22;20019;-67
2023/05/07 08:25:02;;;;;;;37.33;21.08;;;14.00;99.90;;;;;;6271853;22;20316;-67
2023/05/07 08:27:28;;;;;;;35.72;20.70;;;14.00;99.90;;;;;;6272030;22;20016;-67
2023/05/07 08:29:54;;;;;;;33.90;21.13;;;14.00;99.90;;;;;;6271255;22;20016;-67
2023/05/07 08:32:20;;;;;;;34.40;20.65;;;14.00;99.90;;;;;;6271011;22;20023;-67
2023/05/07 08:34:47;;;;;;;36.47;20.65;;;14.20;99.90;;;;;;6271505;22;20585;-67
2023/05/07 08:37:13;;;;;;;33.92;20.55;;;14.20;99.90;;;;;;6271401;22;20073;-67
2023/05/07 08:39:39;;;;;;;34.05;20.05;;;14.20;99.90;;;;;;6271356;22;20011;-67
2023/05/07 08:42:04;;;;;;;32.63;19.48;;;14.10;99.90;;;;;;6271490;22;20027;-64
2023/05/07 08:44:33;;;;;;;34.55;19.63;;;14.00;99.90;;;;;;6271278;22;20023;-65
2023/05/07 08:47:01;;;;;;;33.25;19.55;;;14.10;99.90;;;;;;6271553;22;20011;-65
2023/05/07 08:49:27;;;;;;;33.80;19.55;;;14.10;99.90;;;;;;6271773;22;20030;-64
2023/05/07 08:51:54;;;;;;;36.38;19.65;;;14.20;99.90;;;;;;6271441;22;20030;-65
2023/05/07 08:54:21;;;;;;;33.58;19.40;;;14.20;99.90;;;;;;6270643;22;20020;-64
2023/05/07 08:56:47;;;;;;;34.75;20.35;;;14.40;99.90;;;;;;6271451;22;20027;-64
2023/05/07 08:59:13;;;;;;;30.45;18.63;;;14.50;99.90;;;;;;6270477;22;20561;-64
2023/05/07 09:01:39;;;;;;;32.60;19.83;;;14.70;99.90;;;;;;6270856;22;20016;-64
2023/05/07 09:04:06;;;;;;;33.78;19.75;;;14.70;99.90;;;;;;6270141;22;20022;-64
2023/05/07 10:13:52;;;;;;;26.95;15.88;;;16.10;99.90;;;;;;6255916;22;20087;-70
2023/05/07 10:16:19;;;;;;;25.95;15.02;;;16.30;99.90;;;;;;6271361;22;20082;-70
2023/05/07 10:18:46;;;;;;;26.67;15.50;;;16.40;99.90;;;;;;6268851;22;20024;-72
2023/05/07 10:21:16;;;;;;;23.40;15.45;;;16.40;99.90;;;;;;6272942;22;20019;-70
2023/05/07 10:23:57;;;;;;;25.73;16.27;;;16.30;99.90;;;;;;6272874;22;20149;-70
2023/05/07 10:26:25;;;;;;;24.05;16.10;;;16.40;99.90;;;;;;6272382;22;20351;-70
2023/05/07 10:28:58;;;;;;;25.65;15.77;;;16.40;99.90;;;;;;6271865;22;20803;-70
2023/05/07 10:31:40;;;;;;;23.30;15.70;;;16.50;99.90;;;;;;6271294;22;20015;-69
2023/05/07 10:34:13;;;;;;;24.42;16.25;;;16.80;99.90;;;;;;6273044;22;20028;-70
2023/05/07 10:36:39;;;;;;;;;;;17.00;99.90;;;;;;6272870;22;20019;-72
2023/05/07 10:39:05;;;;;;;23.88;15.90;;;17.00;99.90;;;;;;6272342;22;19911;-71
2023/05/07 10:41:31;;;;;;;24.13;15.70;;;16.90;99.90;;;;;;6272789;22;20343;-63
2023/05/07 10:44:01;;;;;;;21.90;14.15;;;17.10;99.90;;;;;;6272365;22;20343;-62
2023/05/07 10:46:26;;;;;;;26.38;14.95;;;17.30;99.90;;;;;;6272559;22;20580;-63
2023/05/07 10:49:02;;;;;;;23.90;16.25;;;17.30;99.90;;;;;;6272628;22;20019;-63
2023/05/07 10:51:31;;;;;;;22.23;15.15;;;17.30;99.90;;;;;;6271678;22;20012;-63
2023/05/07 10:54:12;;;;;;;22.55;15.63;;;17.30;99.90;;;;;;6244931;22;20027;-63
2023/05/07 10:56:38;;;;;;;20.75;14.32;;;17.50;99.90;;;;;;6272730;22;20016;-63
2023/05/07 10:59:31;;;;;;;20.30;14.13;;;17.50;99.90;;;;;;6273010;22;20023;-63
2023/05/07 11:01:58;;;;;;;;;;;17.60;99.90;;;;;;6272177;22;20024;-75
2023/05/07 11:04:26;;;;;;;18.88;13.40;;;17.60;99.90;;;;;;6244082;22;19922;-75
2023/05/07 11:07:06;;;;;;;20.45;13.52;;;17.60;99.90;;;;;;6272292;22;20077;-75
2023/05/07 11:09:51;;;;;;;19.90;13.88;;;17.40;99.90;;;;;;6272580;22;20022;-75
2023/05/07 11:12:35;;;;;;;23.02;15.10;;;17.40;99.90;;;;;;6272354;22;20039;-76
2023/05/07 11:15:02;;;;;;;25.98;15.65;;;17.50;99.90;;;;;;6272185;22;20044;-76
2023/05/07 11:17:31;;;;;;;22.73;14.48;;;17.70;99.90;;;;;;6244934;22;20094;-76
2023/05/07 11:19:57;;;;;;;22.42;14.77;;;17.80;99.90;;;;;;6272745;22;20562;-76
2023/05/07 11:22:35;;;;;;;21.15;14.65;;;17.70;99.90;;;;;;6272174;22;20530;-64
2023/05/07 11:25:02;;;;;;;27.70;14.00;;;17.70;99.90;;;;;;6271972;22;20020;-64
2023/05/07 11:27:29;;;;;;;20.88;14.82;;;17.80;99.90;;;;;;6271408;22;20523;-64
2023/05/07 11:29:55;;;;;;;18.83;13.55;;;17.80;99.90;;;;;;6270770;22;20015;-64
2023/05/07 11:32:28;;;;;;;21.63;14.40;;;17.80;99.90;;;;;;6271297;22;20026;-64
2023/05/07 11:34:58;;;;;;;20.73;13.70;;;18.00;99.90;;;;;;6271752;22;20050;-64
2023/05/07 11:37:26;;;;;;;21.30;14.88;;;17.90;99.90;;;;;;6271602;22;20007;-64
2023/05/07 11:40:06;;;;;;;20.35;13.73;;;17.80;99.90;;;;;;6271886;22;20012;-64
2023/05/07 11:42:37;;;;;;;17.80;13.20;;;18.00;99.90;;;;;;6271877;22;20016;-64
2023/05/07 11:45:04;;;;;;;18.75;13.52;;;17.90;99.90;;;;;;6271592;22;20019;-64
2023/05/07 11:47:30;;;;;;;22.67;14.38;;;17.80;99.90;;;;;;6271644;22;20016;-64
2023/05/07 11:49:56;;;;;;;21.58;15.07;;;17.80;99.90;;;;;;6271850;22;20024;-64
2023/05/07 11:52:24;;;;;;;21.60;14.60;;;17.80;99.90;;;;;;6270724;22;20024;-64
2023/05/07 11:54:51;;;;;;;21.60;14.52;;;17.70;99.90;;;;;;6244012;22;20011;-64
2023/05/07 11:57:17;;;;;;;19.15;14.13;;;17.80;99.90;;;;;;6271275;22;20024;-64
2023/05/07 11:59:47;;;;;;;21.25;14.73;;;17.80;99.90;;;;;;6271589;22;20014;-72
2023/05/07 12:02:16;;;;;;;22.88;14.15;;;17.80;99.90;;;;;;6271515;22;20024;-72
2023/05/07 12:04:42;;;;;;;20.70;14.18;;;17.80;99.90;;;;;;6270342;22;20506;-72
2023/05/07 12:07:13;;;;;;;24.42;15.43;;;17.80;99.90;;;;;;6271313;22;20051;-72
2023/05/07 12:09:39;;;;;;;21.60;14.93;;;17.90;99.90;;;;;;6244347;22;20042;-72
2023/05/07 12:12:05;;;;;;;19.60;14.05;;;17.90;99.90;;;;;;6269937;22;20095;-72
2023/05/07 12:14:32;;;;;;;21.23;14.52;;;17.90;99.90;;;;;;6271297;22;20048;-73
2023/05/07 12:17:02;;;;;;;20.52;15.73;;;18.10;99.90;;;;;;6244171;22;20166;-62
2023/05/07 12:19:30;;;;;;;21.33;14.10;;;18.20;99.90;;;;;;6271426;22;20128;-63
2023/05/07 12:21:57;;;;;;;21.17;14.63;;;18.10;99.90;;;;;;6270846;22;20019;-63
2023/05/07 12:24:22;;;;;;;19.80;14.75;;;18.10;99.90;;;;;;6271359;22;20022;-63
2023/05/07 12:26:48;;;;;;;20.95;15.18;;;17.90;99.90;;;;;;6271534;22;20107;-63
2023/05/07 12:29:15;;;;;;;19.75;15.02;;;17.80;99.90;;;;;;6271380;22;20026;-62
2023/05/07 12:31:43;;;;;;;21.38;15.48;;;17.80;99.90;;;;;;6270470;22;20020;-63
2023/05/07 12:34:11;;;;;;;23.15;15.30;;;17.80;99.90;;;;;;6270987;22;20030;-63
2023/05/07 12:36:40;;;;;;;18.73;14.20;;;17.70;99.90;;;;;;6272030;22;20454;-76
2023/05/07 12:39:09;;;;;;;21.88;14.35;;;17.70;99.90;;;;;;6244661;22;20024;-75
2023/05/07 12:41:54;;;;;;;21.00;13.75;;;17.70;99.90;;;;;;6271892;22;20015;-76
2023/05/07 12:44:31;;;;;;;20.35;14.38;;;17.80;99.90;;;;;;6272219;22;20339;-77
2023/05/07 12:46:57;;;;;;;19.33;13.23;;;17.70;99.90;;;;;;6272578;22;20023;-76
2023/05/07 12:49:25;;;;;;;20.10;15.07;;;17.70;99.90;;;;;;6272203;22;20019;-77
2023/05/07 12:51:51;;;;;;;19.10;14.50;;;17.60;99.90;;;;;;6244093;22;20039;-77
2023/05/07 12:54:33;;;;;;;17.73;13.20;;;17.70;99.90;;;;;;6244533;22;20166;-76
2023/05/07 12:57:04;;;;;;;17.50;12.95;;;17.70;99.90;;;;;;6271467;22;20115;-77
2023/05/07 12:59:37;;;;;;;20.55;14.02;;;17.70;99.90;;;;;;6270967;22;20015;-75
2023/05/07 13:02:02;;;;;;;18.77;13.35;;;17.80;99.90;;;;;;6219646;22;20077;-75
2023/05/07 13:04:28;;;;;;;18.08;13.15;;;17.80;99.90;;;;;;6269784;22;20027;-75
2023/05/07 13:06:54;;;;;;;21.85;13.45;;;17.80;99.90;;;;;;6271187;22;20478;-76
2023/05/07 13:09:20;;;;;;;17.20;12.48;;;17.80;99.90;;;;;;6244340;22;20132;-76
2023/05/07 13:11:45;;;;;;;17.83;13.88;;;17.80;99.90;;;;;;6271917;22;20019;-75
2023/05/07 13:14:11;;;;;;;21.77;14.73;;;17.70;99.90;;;;;;6244062;22;20034;-76
2023/05/07 13:16:37;;;;;;;20.85;14.05;;;17.70;99.90;;;;;;6271926;22;20030;-75
2023/05/07 13:19:03;;;;;;;19.95;13.50;;;17.70;99.90;;;;;;6270822;22;20023;-76
2023/05/07 13:21:31;;;;;;;18.50;13.32;;;17.80;99.90;;;;;;6271600;22;20019;-76
2023/05/07 13:23:57;;;;;;;18.95;13.50;;;17.90;99.90;;;;;;6271993;22;20027;-75
2023/05/07 13:26:24;;;;;;;22.58;15.07;;;17.90;99.90;;;;;;6271503;22;20023;-76
2023/05/07 13:28:50;;;;;;;19.23;14.15;;;18.10;99.90;;;;;;6271124;22;20050;-76
2023/05/07 13:31:17;;;;;;;17.63;13.20;;;18.20;99.90;;;;;;6271630;22;20019;-76
2023/05/07 13:33:42;;;;;;;17.27;13.27;;;18.20;99.90;;;;;;6244068;22;20138;-76